Gillette, WY

5:37 PM MDT on July 24, 2014 (GMT -0600)
South Gillette, Swanson Road (KWYGILLE8) Elev 4580 ft | 44.24 °N, 105.48 °W | Change Station

Current weather conditions updated 1 second ago

Clear
Clear
98.8 °F
Feels Like 94 °F
N
23.5
Wind Variable Wind from SW
Gusts 28.9 mph

Tomorrow is forecast to be Much Cooler than today.

Today
High -- | Low -- °F
--% Chance of Precip.
Yesterday
High -- | Low -- °F
Precip. -- in
5:40 AM 8:35 PM
Waning Crescent, 4% visible
Pressure 29.58 in
Visibility 10.0 miles
Clouds Clear
Heat Index 94 °F
Dew Point 33 °F
Humidity 10%
Rainfall 0.00 in
Snow Depth Not available.
UV 5 out of 12
Pollen 6.70 out of 12
Air Quality Not available.
Flu Activity Not available.
METAR KGCC 242253Z AUTO 23016G23KT 10SM CLR 37/02 A2978 RMK AO2 PK WND 24028/2229 SLP016 T03720022

More Conditions Fewer Conditions

Pressure 29.58 in
Visibility 10.0 miles
Clouds Clear
Heat Index 94 °F
Dew Point 33 °F
Humidity 10%
Rainfall 0.00 in
Snow Depth Not available.
UV 5 out of 12
Pollen 6.70 out of 12
Air Quality Not available.
Flu Activity Not available.
METAR KGCC 242253Z AUTO 23016G23KT 10SM CLR 37/02 A2978 RMK AO2 PK WND 24028/2229 SLP016 T03720022

More Conditions Fewer Conditions

10-Day Weather Forecast

Almanac

Astronomy

Jul. 24, 2014 Rise Set
Actual Time 5:40 AM MDT 8:35 PM MDT
Civil Twilight 5:06 AM MDT 9:09 PM MDT
Nautical Twilight 4:23 AM MDT 9:52 PM MDT
Astronomical Twilight 3:32 AM MDT 10:43 PM MDT
Moon 3:52 AM MDT 6:51 PM MDT
Length of Visible Light 16h 02m
Length of Day
14h 54m
Tomorrow will be 2m 3s shorter.
Waning Crescent, 4% of the Moon is Illuminated
Today
Waning Crescent
Jul 26
New
Aug 3
First Quarter
Aug 10
Full
Aug 17
Last Quarter

Today's Extremes

State Highs State Lows

Community

WunderPhotos

Upload Photos

1,737,162 photos uploaded!

Nearby

Snow Depth

Station Depth Elevation
Townsend Creek 0 in 8700 ft
Crow Creek 3 in 8330 ft
Big Sandy Opening 0 in 9080 ft
Gunsight Pass 2 in 9820 ft
Sandstone R.S. 4 in 8150 ft

Earthquake Activity

City Distance Mag. Time & Date
No recent earthquake activity has been reported nearby.
Minimum magnitude displayed is 2.5.

Coastal Water Temperatures

Place Temperature
No Stations Reporting

Nearby Weather Stations

Station Location Temp. Heat Index Dew Point Humidity Wind Precip. Elev Updated Type
South Gillette, Swanson Road, Gillette, WY 98.8 °F 94 °F 33 °F 10% SW  at  23.5 mph 0.00 in / hr 4580 ft 5:37 PM MDT Rapid Fire
Crestview, Gillette, WY 101.3 °F 97 °F 45 °F 15% WSW  at  11.4 mph 0.00 in / hr 4685 ft 5:37 PM MDT Rapid Fire
UNION CHAPEL FAIRVIEW, GILLETTE, WY 97.7 °F 93 °F 41 °F 14% West  at  20.0 mph - / hr 4593 ft 5:24 PM MDT Normal
South Gillette, HWY 50, Gillette, WY 96.1 °F 91 °F 34 °F 11% NNW  at  20.0 mph 0.00 in / hr 4840 ft 5:23 PM MDT Normal
RAWS ECHETA WY, Gillette, WY 98 °F 93 °F 32 °F 10% WSW  at  18 mph 0.00 in / hr 4396 ft 4:51 PM MDT MADIS

Show More Stations Show Fewer Stations